Terminal Aerodrome Forecast
Issued by NWS Caribou, ME

Home | Current Version | Previous Version | Text Only | Print | Product List | Glossary On
Versions: 1 2 3 4 5 6 7 8 9 10 11 12 13 14 15 16 17 18 19 20 21 22
000
FTUS41 KCAR 301205 AAB
TAFCAR
TAF AMD
KCAR 301205Z 3012/3112 09004KT 1SM -SN VV009
     FM301400 13005KT 3SM -SN BR OVC009
     FM301800 14007KT 3/4SM -SN BR VV004
     FM310200 02012KT 1/2SM SN FG VV002
     FM310700 36017G25KT 1/4SM SN BLSN VV002=

USA.gov is the U.S. government's official web portal to all federal, state and local government web resources and services.